Time;durP1;ratioP1;P1;durP2;ratioP2;P2;SDS_P1;SDS_P2;PMS_P1;PMS_P2;Temp;Humidity;BMP_temperature;BMP_pressure;BME280_temperature;BME280_humidity;BME280_pressure;Samples;Min_cycle;Max_cycle;Signal;HPM_P1;HPM_P2
2021/12/15 00:01:27;;;;;;;31.42;18.48;;;11.30;89.90;;;;;;5069846;28;20039;-77
2021/12/15 00:03:54;;;;;;;23.38;14.32;;;11.30;90.10;;;;;;5069663;28;20368;-77
2021/12/15 00:06:20;;;;;;;31.27;18.75;;;11.30;90.00;;;;;;5069054;28;20032;-77
2021/12/15 00:08:52;;;;;;;30.20;17.30;;;11.40;90.00;;;;;;5067686;28;20131;-77
2021/12/15 00:11:18;;;;;;;;;;;11.40;90.00;;;;;;5069992;28;20036;-76
2021/12/15 00:13:45;;;;;;;35.83;20.95;;;11.40;89.90;;;;;;5069127;28;20015;-77
2021/12/15 00:16:12;;;;;;;33.88;19.23;;;11.30;89.90;;;;;;5068891;28;20475;-77
2021/12/15 00:18:41;;;;;;;26.63;16.85;;;11.30;89.90;;;;;;5068958;28;20033;-77
2021/12/15 00:21:09;;;;;;;27.60;17.15;;;11.20;89.90;;;;;;5069073;28;20115;-77
2021/12/15 00:23:35;;;;;;;28.08;17.23;;;11.20;90.00;;;;;;5069226;28;20025;-77
2021/12/15 00:26:01;;;;;;;40.33;24.10;;;11.30;90.00;;;;;;5067705;28;20024;-75
2021/12/15 00:28:26;;;;;;;29.25;17.95;;;11.30;89.90;;;;;;5068480;28;20036;-75
2021/12/15 00:30:52;;;;;;;30.10;18.55;;;11.30;89.90;;;;;;5066981;28;20032;-76
2021/12/15 00:33:18;;;;;;;28.95;17.38;;;11.20;89.90;;;;;;5068474;28;20031;-76
2021/12/15 00:35:44;;;;;;;25.48;15.13;;;11.20;90.00;;;;;;5067636;28;20120;-76
2021/12/15 00:38:10;;;;;;;25.85;16.42;;;11.30;90.00;;;;;;5066687;28;20082;-76
2021/12/15 00:40:36;;;;;;;24.95;15.52;;;11.30;89.90;;;;;;5066903;28;20027;-77
2021/12/15 00:43:02;;;;;;;27.65;17.42;;;11.30;89.90;;;;;;5068924;28;20398;-76
2021/12/15 00:45:28;;;;;;;43.25;26.13;;;11.30;89.80;;;;;;5067433;28;20020;-76
2021/12/15 00:47:54;;;;;;;29.77;18.20;;;11.20;89.60;;;;;;5068470;28;20127;-76
2021/12/15 00:50:26;;;;;;;28.50;18.75;;;11.20;89.80;;;;;;5068414;28;20544;-76
2021/12/15 00:52:53;;;;;;;28.92;18.73;;;11.20;89.80;;;;;;5071425;28;20031;-76
2021/12/15 00:55:23;;;;;;;28.00;18.17;;;11.20;89.80;;;;;;5072148;28;20056;-77
2021/12/15 00:57:49;;;;;;;28.38;17.08;;;11.20;89.80;;;;;;5070894;28;20032;-77
2021/12/15 01:00:20;;;;;;;41.60;24.67;;;11.20;89.90;;;;;;5072675;28;20021;-81
2021/12/15 01:02:47;;;;;;;33.33;20.45;;;11.10;89.80;;;;;;5072489;28;20032;-77
2021/12/15 01:05:15;;;;;;;33.35;20.27;;;11.10;89.90;;;;;;5072422;28;20020;-76
2021/12/15 01:07:41;;;;;;;36.60;23.33;;;11.10;89.90;;;;;;5072164;28;20432;-76
2021/12/15 01:10:09;;;;;;;31.48;19.65;;;11.10;89.80;;;;;;5071868;28;20020;-77
2021/12/15 01:12:52;;;;;;;28.77;18.23;;;11.10;89.90;;;;;;5062146;28;20457;-77
2021/12/15 01:20:50;;;;;;;19.95;12.50;;;11.10;89.90;;;;;;5072314;28;20082;-77
2021/12/15 01:23:18;;;;;;;35.97;22.33;;;11.10;90.00;;;;;;5072696;28;20171;-78
2021/12/15 01:25:48;;;;;;;25.58;15.93;;;11.10;89.80;;;;;;5071464;28;20063;-77
2021/12/15 01:28:14;;;;;;;36.75;22.38;;;11.10;89.90;;;;;;5071720;28;20047;-77
2021/12/15 01:30:44;;;;;;;33.33;20.38;;;11.10;89.90;;;;;;5072261;28;20025;-77
2021/12/15 01:33:10;;;;;;;34.55;22.35;;;11.10;89.80;;;;;;5071967;28;20040;-77
2021/12/15 01:35:39;;;;;;;36.25;21.45;;;11.10;89.90;;;;;;5071871;28;20066;-77
2021/12/15 01:38:05;;;;;;;32.00;19.77;;;11.10;89.90;;;;;;5071887;28;20024;-77
2021/12/15 01:40:39;;;;;;;33.45;20.38;;;11.00;89.90;;;;;;5071589;28;20372;-77
2021/12/15 01:43:17;;;;;;;38.75;24.13;;;11.10;90.00;;;;;;5072363;28;20029;-78
2021/12/15 01:48:53;;;;;;;39.63;23.52;;;11.10;90.00;;;;;;5068531;28;20446;-76
2021/12/15 01:51:19;;;;;;;33.45;20.50;;;11.00;89.90;;;;;;5059071;28;20100;-76
2021/12/15 01:53:45;;;;;;;27.95;17.10;;;11.10;90.00;;;;;;5072361;28;20070;-76
2021/12/15 01:56:10;;;;;;;29.25;17.83;;;11.10;90.00;;;;;;5070902;28;20024;-76
2021/12/15 01:58:36;;;;;;;30.80;17.52;;;11.10;90.00;;;;;;5071247;28;20475;-76
2021/12/15 02:01:06;;;;;;;26.58;17.15;;;11.10;90.00;;;;;;5071775;28;20036;-76
2021/12/15 02:03:32;;;;;;;26.63;16.63;;;11.20;90.00;;;;;;5070802;28;20382;-75
2021/12/15 02:05:58;;;;;;;28.95;17.90;;;11.20;89.90;;;;;;5070711;28;20023;-75
2021/12/15 02:08:24;;;;;;;30.35;18.98;;;11.30;90.00;;;;;;5071419;28;20379;-76
2021/12/15 02:10:50;;;;;;;37.13;21.77;;;11.20;90.00;;;;;;5070965;28;20080;-76
2021/12/15 02:13:18;;;;;;;30.73;18.33;;;11.20;89.80;;;;;;5071154;28;20090;-75
2021/12/15 02:15:48;;;;;;;29.55;17.52;;;11.20;89.80;;;;;;5070328;28;20475;-77
2021/12/15 02:18:17;;;;;;;25.50;15.40;;;11.20;89.90;;;;;;5071909;28;20408;-75
2021/12/15 02:20:47;;;;;;;23.70;14.93;;;11.20;89.80;;;;;;5071037;28;20012;-76
2021/12/15 02:23:16;;;;;;;25.80;15.60;;;11.30;89.90;;;;;;5066572;28;20035;-76
2021/12/15 02:25:41;;;;;;;27.45;18.02;;;11.30;89.90;;;;;;5069180;28;20021;-76
2021/12/15 02:28:08;;;;;;;31.80;19.63;;;11.30;89.70;;;;;;5070790;28;20040;-76
2021/12/15 02:33:39;;;;;;;29.45;16.58;;;11.40;89.50;;;;;;5070790;28;20116;-75
2021/12/15 02:38:45;;;;;;;21.75;13.98;;;11.40;89.80;;;;;;5071106;28;20498;-76
2021/12/15 02:41:20;;;;;;;25.58;16.05;;;11.40;89.80;;;;;;5070222;28;20099;-75
2021/12/15 02:43:54;;;;;;;26.27;16.27;;;11.40;89.60;;;;;;5071056;28;20036;-76
2021/12/15 02:46:20;;;;;;;26.42;16.33;;;11.50;89.60;;;;;;5070344;28;20028;-76
2021/12/15 02:48:46;;;;;;;30.27;18.55;;;11.50;89.50;;;;;;5069955;28;20047;-76
2021/12/15 02:51:12;;;;;;;27.15;17.77;;;11.50;89.50;;;;;;5070908;28;20029;-77
2021/12/15 02:53:38;;;;;;;31.33;19.25;;;11.50;89.50;;;;;;5070283;28;20597;-75
2021/12/15 02:56:04;;;;;;;40.40;24.98;;;11.50;89.50;;;;;;5069980;28;20033;-75
2021/12/15 02:58:33;;;;;;;32.28;20.80;;;11.30;89.20;;;;;;5070278;28;20025;-76
2021/12/15 03:01:08;;;;;;;31.02;18.95;;;11.30;89.30;;;;;;5070657;28;20029;-76
2021/12/15 03:06:16;;;;;;;29.42;18.13;;;11.30;89.50;;;;;;5070210;28;20490;-76
2021/12/15 03:16:41;;;;;;;33.22;19.10;;;11.30;89.50;;;;;;5069471;28;20032;-75
2021/12/15 03:19:07;;;;;;;25.77;16.58;;;11.30;89.60;;;;;;5068943;28;20032;-76
2021/12/15 03:21:33;;;;;;;29.35;18.55;;;11.20;89.50;;;;;;5070195;28;20454;-76
2021/12/15 03:24:03;;;;;;;27.35;15.93;;;11.30;89.60;;;;;;5068698;28;20036;-76
2021/12/15 03:26:38;;;;;;;26.17;16.60;;;11.30;89.60;;;;;;5069201;28;20035;-76
2021/12/15 03:35:00;;;;;;;35.33;20.88;;;11.20;89.50;;;;;;5069411;28;20043;-75
2021/12/15 03:37:28;;;;;;;28.45;17.25;;;11.20;89.40;;;;;;5050246;28;20396;-74
2021/12/15 03:39:58;;;;;;;28.40;16.92;;;11.20;89.60;;;;;;5068182;28;20111;-75
2021/12/15 03:42:30;;;;;;;22.63;14.45;;;11.20;89.80;;;;;;5069759;28;20028;-75
2021/12/15 03:44:57;;;;;;;29.65;18.15;;;11.20;89.70;;;;;;5068427;28;20036;-74
2021/12/15 03:47:28;;;;;;;30.20;18.75;;;11.20;89.60;;;;;;5067627;28;20085;-75
2021/12/15 03:49:56;;;;;;;23.95;14.55;;;11.20;89.70;;;;;;5063345;28;20403;-77
2021/12/15 03:52:22;;;;;;;24.30;15.45;;;11.20;89.80;;;;;;5061718;28;20064;-76
2021/12/15 03:54:48;;;;;;;33.78;20.25;;;11.30;89.80;;;;;;5067152;28;20031;-79
2021/12/15 03:57:14;;;;;;;29.85;17.65;;;11.30;89.50;;;;;;5069539;28;20020;-77
2021/12/15 03:59:42;;;;;;;30.05;19.15;;;11.30;89.60;;;;;;5069352;28;20628;-77
2021/12/15 04:02:10;;;;;;;31.23;19.42;;;11.20;90.00;;;;;;5069243;28;20021;-77
2021/12/15 04:04:36;;;;;;;27.30;17.60;;;11.20;89.50;;;;;;5067108;28;20033;-77
2021/12/15 04:07:02;;;;;;;30.00;18.55;;;11.20;89.50;;;;;;5068686;28;20032;-75
2021/12/15 04:09:28;;;;;;;25.60;15.50;;;11.20;89.60;;;;;;5068206;28;20079;-76
2021/12/15 04:11:54;;;;;;;34.33;19.20;;;11.20;89.60;;;;;;5068645;28;20032;-76
2021/12/15 04:14:23;;;;;;;31.85;19.02;;;11.20;89.60;;;;;;5067453;28;20032;-76
2021/12/15 04:17:07;;;;;;;34.30;21.15;;;11.20;89.60;;;;;;5068626;28;20028;-75
2021/12/15 04:19:36;;;;;;;28.98;18.05;;;11.10;89.40;;;;;;5067105;28;20032;-76
2021/12/15 04:22:03;;;;;;;29.70;17.45;;;11.10;89.60;;;;;;5068519;28;20523;-76
2021/12/15 04:24:28;;;;;;;25.10;15.27;;;11.20;89.70;;;;;;5067380;28;20045;-77
2021/12/15 04:26:57;;;;;;;26.52;15.30;;;11.20;89.70;;;;;;5067410;28;20020;-77
2021/12/15 04:29:28;;;;;;;22.38;13.98;;;11.20;89.80;;;;;;5070871;28;20703;-77
2021/12/15 04:32:11;;;;;;;31.15;18.67;;;11.20;89.80;;;;;;5073108;28;20036;-75
2021/12/15 04:34:37;;;;;;;29.10;17.95;;;11.20;89.60;;;;;;5072137;28;20029;-75
2021/12/15 04:37:03;;;;;;;31.25;18.98;;;11.20;89.60;;;;;;5071062;28;20124;-75
2021/12/15 04:39:29;;;;;;;29.85;18.40;;;11.20;89.50;;;;;;5071975;28;20106;-76
2021/12/15 04:41:56;;;;;;;29.50;17.35;;;11.20;89.60;;;;;;5070762;28;20043;-75
2021/12/15 04:44:25;;;;;;;30.48;18.27;;;11.20;89.70;;;;;;5072573;28;20112;-76
2021/12/15 04:47:00;;;;;;;28.60;17.50;;;11.20;89.70;;;;;;5070470;28;20417;-77
2021/12/15 04:49:32;;;;;;;28.50;17.02;;;11.30;89.80;;;;;;5070390;28;20551;-76
2021/12/15 04:51:59;;;;;;;25.50;15.95;;;11.30;89.70;;;;;;5072159;28;20479;-76
2021/12/15 04:54:25;;;;;;;27.17;16.35;;;11.30;89.70;;;;;;5070184;28;20487;-76
2021/12/15 04:56:52;;;;;;;30.00;17.17;;;11.20;89.60;;;;;;5071756;28;20025;-75
2021/12/15 04:59:18;;;;;;;31.70;17.60;;;11.30;89.70;;;;;;5072229;28;20040;-75
2021/12/15 05:01:45;;;;;;;29.05;18.48;;;11.20;89.60;;;;;;5071111;28;20082;-75
2021/12/15 05:04:11;;;;;;;27.85;16.50;;;11.20;89.50;;;;;;5072014;28;20399;-75
2021/12/15 05:06:37;;;;;;;41.85;24.95;;;11.20;89.60;;;;;;5069341;28;20024;-75
2021/12/15 05:09:04;;;;;;;31.23;18.20;;;11.30;89.60;;;;;;5070434;28;20086;-75
2021/12/15 05:11:30;;;;;;;31.38;18.55;;;11.20;89.50;;;;;;5071332;28;20021;-75
2021/12/15 05:13:55;;;;;;;32.78;19.42;;;11.20;89.40;;;;;;5071969;28;20033;-75
2021/12/15 05:16:21;;;;;;;23.85;14.60;;;11.20;89.50;;;;;;5071318;28;20059;-76
2021/12/15 05:18:47;;;;;;;25.38;14.55;;;11.30;89.50;;;;;;5071964;28;20107;-75
2021/12/15 05:21:12;;;;;;;27.70;16.95;;;11.30;89.50;;;;;;5070121;28;20039;-76
2021/12/15 05:23:39;;;;;;;29.45;17.45;;;11.40;89.40;;;;;;5071509;28;20364;-76
2021/12/15 05:26:05;;;;;;;32.60;19.15;;;11.40;89.30;;;;;;5069266;28;20059;-75
2021/12/15 05:28:31;;;;;;;25.90;15.65;;;11.30;89.30;;;;;;5071813;28;20060;-78
2021/12/15 05:30:57;;;;;;;25.10;15.25;;;11.40;89.40;;;;;;5071357;28;20028;-77
2021/12/15 05:33:26;;;;;;;29.95;18.58;;;11.40;89.40;;;;;;5069963;28;20024;-77
2021/12/15 05:35:53;;;;;;;33.38;19.30;;;11.40;89.30;;;;;;5069874;28;20023;-77
2021/12/15 05:38:19;;;;;;;29.23;17.65;;;11.40;89.30;;;;;;5069201;28;20024;-78
2021/12/15 05:40:45;;;;;;;27.00;16.95;;;11.30;89.30;;;;;;5069054;28;20527;-76
2021/12/15 05:43:11;;;;;;;20.98;13.43;;;11.40;89.50;;;;;;5069874;28;20549;-76
2021/12/15 05:45:39;;;;;;;28.38;17.92;;;11.40;89.40;;;;;;5070932;28;20021;-77
2021/12/15 05:48:07;;;;;;;25.77;15.70;;;11.50;89.40;;;;;;5070388;28;20037;-77
2021/12/15 05:50:34;;;;;;;29.88;17.65;;;11.40;89.30;;;;;;5070439;28;20020;-77
2021/12/15 05:53:01;;;;;;;26.20;15.68;;;11.40;89.30;;;;;;5070303;28;20067;-77
2021/12/15 05:55:27;;;;;;;29.45;17.02;;;11.50;89.30;;;;;;5069246;28;20566;-78
2021/12/15 05:57:53;;;;;;;26.48;15.13;;;11.40;89.20;;;;;;5070763;28;20021;-77
2021/12/15 06:00:25;;;;;;;23.10;14.80;;;11.40;89.30;;;;;;5070762;28;20071;-78
2021/12/15 06:02:51;;;;;;;;;;;11.50;89.40;;;;;;5065351;28;20028;-76
2021/12/15 06:05:17;;;;;;;24.95;15.15;;;11.40;89.10;;;;;;5065690;28;20313;-77
2021/12/15 06:07:43;;;;;;;23.85;14.25;;;11.40;89.30;;;;;;5067299;28;20040;-77
2021/12/15 06:10:12;;;;;;;24.48;15.70;;;11.50;89.40;;;;;;5067221;28;20043;-78
2021/12/15 06:12:38;;;;;;;27.15;16.63;;;11.50;89.40;;;;;;5067460;28;20036;-77
2021/12/15 06:15:06;;;;;;;27.95;16.77;;;11.50;89.30;;;;;;5067788;28;20032;-78
2021/12/15 06:17:31;;;;;;;29.85;16.67;;;11.60;89.30;;;;;;5065709;28;20497;-79
2021/12/15 06:19:57;;;;;;;27.75;16.40;;;11.60;89.10;;;;;;5067179;28;20119;-76
2021/12/15 06:22:26;;;;;;;26.80;16.52;;;11.60;89.00;;;;;;5065213;28;20031;-77
2021/12/15 06:24:54;;;;;;;19.25;11.85;;;11.50;88.90;;;;;;5065971;28;20108;-76
2021/12/15 06:27:21;;;;;;;24.25;14.63;;;11.50;89.00;;;;;;5063639;28;20032;-76
2021/12/15 06:29:48;;;;;;;30.90;17.77;;;11.40;89.00;;;;;;5068268;28;20044;-76
2021/12/15 06:32:14;;;;;;;32.63;19.67;;;11.30;89.10;;;;;;5068637;28;20025;-77
2021/12/15 06:34:40;;;;;;;32.00;18.35;;;11.30;89.20;;;;;;5067725;28;20102;-76
2021/12/15 06:37:05;;;;;;;27.33;16.60;;;11.20;89.30;;;;;;5068663;28;20024;-76
2021/12/15 06:39:32;;;;;;;25.27;14.52;;;11.20;89.40;;;;;;5068392;28;20040;-77
2021/12/15 06:41:57;;;;;;;38.95;23.10;;;11.20;89.50;;;;;;5070188;28;20027;-77
2021/12/15 06:44:23;;;;;;;26.73;16.83;;;11.20;89.40;;;;;;5070999;28;20012;-76
2021/12/15 07:00:40;;;;;;;28.30;16.13;;;11.10;89.60;;;;;;5059845;28;20055;-82
2021/12/15 07:03:06;;;;;;;34.85;20.67;;;11.10;89.60;;;;;;5060744;28;20033;-76
2021/12/15 07:05:33;;;;;;;33.53;19.55;;;11.10;89.60;;;;;;5064418;28;20819;-77
2021/12/15 07:08:01;;;;;;;32.60;19.02;;;11.10;89.70;;;;;;5062857;28;20395;-76
2021/12/15 07:10:29;;;;;;;20.65;12.93;;;11.10;90.00;;;;;;5065043;28;20052;-75
2021/12/15 07:12:56;;;;;;;25.60;14.50;;;11.10;89.80;;;;;;5064642;28;20040;-76
2021/12/15 07:15:21;;;;;;;24.88;15.27;;;11.10;89.70;;;;;;5062626;28;20056;-77
2021/12/15 07:17:50;;;;;;;28.30;16.77;;;11.20;89.70;;;;;;5065261;28;20063;-75
2021/12/15 07:20:32;;;;;;;31.15;17.80;;;11.10;89.60;;;;;;5063248;28;20025;-77
2021/12/15 07:23:00;;;;;;;32.75;19.35;;;11.10;89.60;;;;;;5057983;28;20116;-78
2021/12/15 07:25:27;;;;;;;31.38;17.48;;;11.10;89.70;;;;;;5056524;28;20029;-77
2021/12/15 07:27:53;;;;;;;30.45;17.55;;;11.10;89.80;;;;;;5062776;28;20403;-77
2021/12/15 07:30:19;;;;;;;27.77;15.77;;;11.10;89.80;;;;;;5059356;28;20132;-79
2021/12/15 07:32:46;;;;;;;22.05;12.98;;;11.10;89.80;;;;;;5061316;28;20051;-81
2021/12/15 07:35:14;;;;;;;36.13;19.83;;;11.10;89.80;;;;;;5062049;28;20020;-78
2021/12/15 07:37:41;;;;;;;31.80;18.30;;;11.10;89.80;;;;;;5064880;28;20428;-78
2021/12/15 07:40:18;;;;;;;30.17;15.93;;;11.10;89.90;;;;;;5058978;28;20025;-78
2021/12/15 07:42:55;;;;;;;39.58;21.85;;;11.10;89.90;;;;;;5053589;28;20039;-79
2021/12/15 07:45:23;;;;;;;27.65;15.13;;;11.00;90.00;;;;;;5053346;28;20642;-78
2021/12/15 07:47:55;;;;;;;32.17;17.70;;;11.00;90.00;;;;;;5054206;28;20029;-78
2021/12/15 07:50:21;;;;;;;31.60;15.45;;;11.00;90.00;;;;;;5056360;28;20036;-78
2021/12/15 07:52:51;;;;;;;36.97;18.83;;;11.10;90.10;;;;;;5053868;28;20024;-79
2021/12/15 07:55:18;;;;;;;36.47;18.77;;;11.10;90.10;;;;;;5057472;28;20033;-78
2021/12/15 07:57:45;;;;;;;32.78;19.52;;;11.10;90.10;;;;;;5053898;28;20028;-79
2021/12/15 08:00:12;;;;;;;38.67;19.90;;;11.10;90.00;;;;;;5051051;28;20025;-79
2021/12/15 08:02:38;;;;;;;40.83;19.15;;;11.10;90.10;;;;;;5055996;28;20516;-79
2021/12/15 08:05:04;;;;;;;36.92;19.65;;;11.10;90.10;;;;;;5054173;28;20056;-79
2021/12/15 08:07:30;;;;;;;36.47;19.00;;;11.10;90.00;;;;;;5061458;28;20028;-78
2021/12/15 08:09:55;;;;;;;32.30;17.27;;;11.10;90.10;;;;;;5063594;28;20021;-79
2021/12/15 08:12:21;;;;;;;35.03;17.13;;;11.10;90.10;;;;;;5058159;28;20031;-78
2021/12/15 08:14:46;;;;;;;37.72;17.88;;;11.10;90.10;;;;;;5064137;28;20616;-79
2021/12/15 08:17:12;;;;;;;34.55;17.60;;;11.20;90.10;;;;;;5063435;28;20409;-79
2021/12/15 08:19:38;;;;;;;33.35;15.77;;;11.10;90.10;;;;;;5061937;28;20017;-77
2021/12/15 08:22:03;;;;;;;29.10;15.98;;;11.20;90.10;;;;;;5060628;28;20035;-78
2021/12/15 08:24:29;;;;;;;33.28;16.45;;;11.10;90.10;;;;;;5058599;28;20509;-78
2021/12/15 08:26:54;;;;;;;38.40;18.60;;;11.20;90.10;;;;;;5059501;28;20438;-78
2021/12/15 08:29:20;;;;;;;51.80;21.00;;;11.20;90.10;;;;;;5059847;28;20033;-79
2021/12/15 08:31:46;;;;;;;37.65;19.05;;;11.20;90.10;;;;;;5060819;28;20044;-77
2021/12/15 08:34:12;;;;;;;30.45;15.57;;;11.10;90.10;;;;;;5061088;28;20032;-79
2021/12/15 08:36:38;;;;;;;34.63;16.98;;;11.10;90.20;;;;;;5060442;28;20029;-78
2021/12/15 08:39:06;;;;;;;34.08;17.42;;;11.10;90.20;;;;;;5060340;28;20672;-78
2021/12/15 08:41:32;;;;;;;46.70;20.65;;;11.10;90.20;;;;;;5060042;28;20028;-78
2021/12/15 08:43:58;;;;;;;36.88;17.58;;;11.10;90.20;;;;;;5058952;28;20032;-77
2021/12/15 08:46:31;;;;;;;38.10;18.85;;;11.10;90.30;;;;;;5062583;28;20682;-80
2021/12/15 08:49:01;;;;;;;;;;;11.10;90.30;;;;;;5062984;28;20041;-82
2021/12/15 08:51:28;;;;;;;42.38;19.45;;;11.10;90.20;;;;;;5057788;28;21261;-80
2021/12/15 08:53:56;;;;;;;33.85;17.45;;;11.10;90.30;;;;;;5062107;28;20654;-79
2021/12/15 08:56:21;;;;;;;33.83;15.13;;;11.10;90.30;;;;;;5062355;28;20467;-79
2021/12/15 08:58:47;;;;;;;34.10;16.95;;;11.10;90.30;;;;;;5062414;28;20040;-81
2021/12/15 09:01:13;;;;;;;34.22;17.42;;;11.10;90.30;;;;;;5058507;28;20033;-84
2021/12/15 09:03:42;;;;;;;37.05;19.00;;;11.10;90.30;;;;;;5058737;28;20028;-85
2021/12/15 09:06:08;;;;;;;39.28;20.25;;;11.20;90.30;;;;;;5059697;28;20029;-85
2021/12/15 09:08:34;;;;;;;45.65;20.85;;;11.10;90.30;;;;;;5060382;28;20040;-82
2021/12/15 09:11:05;;;;;;;42.65;20.05;;;11.20;90.30;;;;;;5062726;28;20032;-79
2021/12/15 09:13:31;;;;;;;40.72;19.70;;;11.20;90.30;;;;;;5062096;28;20052;-80
2021/12/15 09:16:00;;;;;;;35.13;16.10;;;11.20;90.30;;;;;;5061646;28;20055;-80
2021/12/15 09:18:26;;;;;;;29.50;14.60;;;11.20;90.40;;;;;;5066156;28;20658;-80
2021/12/15 09:20:51;;;;;;;38.03;18.70;;;11.20;90.30;;;;;;5062527;28;20047;-80
2021/12/15 09:23:18;;;;;;;31.92;16.45;;;11.20;90.30;;;;;;5061183;28;20029;-79
2021/12/15 09:25:45;;;;;;;38.35;17.95;;;11.20;90.30;;;;;;5060774;28;20040;-79
2021/12/15 09:28:11;;;;;;;41.35;19.50;;;11.30;90.30;;;;;;5064107;28;20021;-80
2021/12/15 09:30:44;;;;;;;34.38;16.23;;;11.30;90.30;;;;;;5062893;28;20079;-78
2021/12/15 09:33:16;;;;;;;38.10;19.08;;;11.30;90.30;;;;;;5064585;28;20017;-78
2021/12/15 09:35:43;;;;;;;36.35;17.38;;;11.30;90.30;;;;;;5065124;28;20059;-77
2021/12/15 09:38:09;;;;;;;35.92;17.52;;;11.30;90.30;;;;;;5066193;28;20114;-78
2021/12/15 09:40:35;;;;;;;36.83;18.05;;;11.30;90.30;;;;;;5065373;28;20453;-78
2021/12/15 09:43:03;;;;;;;47.00;21.50;;;11.30;90.30;;;;;;5069791;28;20120;-79
2021/12/15 09:45:50;;;;;;;37.53;18.20;;;11.30;90.30;;;;;;5063748;28;20107;-78
2021/12/15 10:17:21;;;;;;;39.78;19.90;;;11.40;90.40;;;;;;5067933;28;20031;-81
2021/12/15 10:18:06;;;;;;;36.60;19.10;;;11.30;90.40;;;;;;5064579;28;20042;-82
2021/12/15 10:20:32;;;;;;;39.63;20.65;;;11.30;90.40;;;;;;5073190;28;20067;-82
2021/12/15 10:23:01;;;;;;;42.88;21.83;;;11.30;90.40;;;;;;5069896;28;20021;-81
2021/12/15 10:25:31;;;;;;;44.20;22.55;;;11.30;90.40;;;;;;5066254;28;20428;-81
2021/12/15 10:28:06;;;;;;;39.03;20.60;;;11.30;90.40;;;;;;5064619;28;20029;-81
2021/12/15 10:30:38;;;;;;;38.58;20.35;;;11.40;90.50;;;;;;5064500;28;20512;-81
2021/12/15 10:33:09;;;;;;;;;;;11.40;90.50;;;;;;5062949;28;20602;-81
2021/12/15 10:35:40;;;;;;;50.58;25.48;;;11.40;90.40;;;;;;5063730;28;19962;-78
2021/12/15 10:38:21;;;;;;;40.78;20.77;;;11.30;90.70;;;;;;5067458;28;20615;-81
2021/12/15 10:41:06;;;;;;;45.85;23.30;;;11.30;90.50;;;;;;5061906;28;20020;-81
2021/12/15 10:43:31;;;;;;;27.75;15.02;;;11.40;90.50;;;;;;5057530;28;20025;-81
2021/12/15 10:46:08;;;;;;;38.67;19.27;;;11.40;90.40;;;;;;5067290;28;20151;-82
2021/12/15 10:48:43;;;;;;;38.78;20.80;;;11.40;90.40;;;;;;5065954;28;20040;-81
2021/12/15 10:51:23;;;;;;;37.45;19.90;;;11.40;90.40;;;;;;5067333;28;20024;-81
2021/12/15 10:53:50;;;;;;;41.90;22.33;;;11.50;90.40;;;;;;5067929;28;20028;-83
2021/12/15 10:56:19;;;;;;;39.85;21.45;;;11.50;90.40;;;;;;5065243;28;20060;-80
2021/12/15 10:58:54;;;;;;;39.80;22.08;;;11.50;90.40;;;;;;5066618;28;20063;-81
2021/12/15 11:01:41;;;;;;;38.20;20.88;;;11.50;90.40;;;;;;5068132;28;20546;-82
2021/12/15 11:04:25;;;;;;;38.83;21.88;;;11.60;90.40;;;;;;5058464;28;20052;-82
2021/12/15 11:07:09;;;;;;;41.33;23.02;;;11.50;90.30;;;;;;5063001;28;20024;-81
2021/12/15 11:09:39;;;;;;;38.40;22.13;;;11.50;90.30;;;;;;5064523;28;20139;-79
2021/12/15 11:12:17;;;;;;;36.55;20.90;;;11.60;90.40;;;;;;5067038;28;20034;-83
2021/12/15 11:14:48;;;;;;;35.78;19.20;;;11.60;90.30;;;;;;5064024;28;20024;-78
2021/12/15 11:17:27;;;;;;;40.15;23.13;;;11.60;90.30;;;;;;5060730;28;20071;-80
2021/12/15 11:20:09;;;;;;;36.08;21.17;;;11.70;90.30;;;;;;5064001;28;20032;-80
2021/12/15 11:22:41;;;;;;;37.85;21.77;;;11.70;90.30;;;;;;5061949;28;20043;-80
2021/12/15 11:25:12;;;;;;;33.72;19.90;;;11.70;90.30;;;;;;5060552;28;20078;-81
2021/12/15 11:27:39;;;;;;;32.22;18.92;;;11.70;90.20;;;;;;5060857;28;20039;-81
2021/12/15 11:30:10;;;;;;;33.08;19.50;;;11.70;90.20;;;;;;5062971;28;20021;-81
2021/12/15 11:32:40;;;;;;;34.38;20.25;;;11.70;90.20;;;;;;5067137;28;20035;-81
2021/12/15 11:35:16;;;;;;;28.48;17.98;;;11.80;90.20;;;;;;5065967;28;20025;-81
2021/12/15 11:37:50;;;;;;;35.63;21.25;;;11.80;90.20;;;;;;5062254;28;20035;-81
2021/12/15 11:40:22;;;;;;;33.05;20.60;;;11.80;90.10;;;;;;5062068;28;20062;-81
2021/12/15 11:42:47;;;;;;;29.95;18.42;;;11.80;90.20;;;;;;5064830;28;20044;-82
2021/12/15 11:45:14;;;;;;;30.58;20.23;;;11.80;90.10;;;;;;5062715;28;20134;-81
2021/12/15 11:47:40;;;;;;;34.92;21.67;;;11.80;90.10;;;;;;5064777;28;20020;-80
2021/12/15 11:50:17;;;;;;;33.50;21.50;;;11.80;90.10;;;;;;5063208;28;20517;-79
2021/12/15 11:52:49;;;;;;;30.70;20.05;;;11.80;90.10;;;;;;5059018;28;20017;-79
2021/12/15 11:55:31;;;;;;;36.05;22.15;;;11.80;90.10;;;;;;5063867;28;20036;-80
2021/12/15 11:57:57;;;;;;;27.30;17.00;;;11.80;90.10;;;;;;5062415;28;20105;-78
2021/12/15 12:00:27;;;;;;;28.35;17.48;;;11.80;90.10;;;;;;5056470;28;20016;-82
2021/12/15 12:02:57;;;;;;;26.48;17.00;;;11.90;90.10;;;;;;5066825;28;20024;-82
2021/12/15 12:05:31;;;;;;;29.63;19.45;;;11.90;90.00;;;;;;5062388;28;20029;-85
2021/12/15 12:08:07;;;;;;;28.55;17.95;;;11.90;90.00;;;;;;5062195;28;20037;-82
2021/12/15 12:10:45;;;;;;;25.52;15.75;;;11.90;90.00;;;;;;5066014;28;20025;-88
2021/12/15 12:13:15;;;;;;;26.65;17.35;;;11.90;90.00;;;;;;5058530;28;20024;-84
2021/12/15 12:15:43;;;;;;;26.55;17.13;;;11.90;90.00;;;;;;5065706;28;20107;-83
2021/12/15 12:18:17;;;;;;;22.23;14.48;;;11.90;90.00;;;;;;5066315;28;20194;-84
2021/12/15 12:20:46;;;;;;;29.17;18.73;;;11.90;90.00;;;;;;5067348;28;20013;-84
2021/12/15 12:23:15;;;;;;;33.33;20.60;;;11.90;90.00;;;;;;5066112;28;20031;-82
2021/12/15 12:25:47;;;;;;;29.30;19.50;;;11.90;89.90;;;;;;5057523;28;20043;-81
2021/12/15 12:28:16;;;;;;;28.17;18.42;;;11.90;90.00;;;;;;5065637;28;20028;-83
2021/12/15 12:30:45;;;;;;;26.20;17.75;;;11.90;89.90;;;;;;5063094;28;20040;-84
2021/12/15 12:33:13;;;;;;;24.40;15.32;;;11.90;90.00;;;;;;5063537;28;20123;-83
2021/12/15 12:35:42;;;;;;;31.88;20.55;;;11.90;90.00;;;;;;5064805;28;20027;-82
2021/12/15 12:38:12;;;;;;;30.27;20.10;;;11.90;89.90;;;;;;5061809;28;20704;-88
2021/12/15 12:40:52;;;;;;;28.35;18.88;;;11.90;89.90;;;;;;5062302;28;20450;-86
2021/12/15 12:43:23;;;;;;;24.45;17.38;;;12.00;89.90;;;;;;5058306;28;20029;-82
2021/12/15 12:45:55;;;;;;;23.02;16.38;;;12.00;89.90;;;;;;5063779;28;20055;-80
2021/12/15 12:57:55;;;;;;;24.38;16.02;;;12.00;89.70;;;;;;5065812;28;20108;-81
2021/12/15 12:59:44;;;;;;;16.83;11.98;;;12.10;89.60;;;;;;5069226;28;20043;-82
2021/12/15 13:02:33;;;;;;;21.33;15.10;;;12.20;89.50;;;;;;5069655;28;20035;-86
2021/12/15 13:04:59;;;;;;;24.20;16.33;;;12.20;89.50;;;;;;5069420;28;20025;-87
2021/12/15 13:07:52;;;;;;;26.17;18.13;;;12.20;89.40;;;;;;5061298;28;20029;-83
2021/12/15 13:10:20;;;;;;;22.02;15.32;;;12.10;89.30;;;;;;5067362;28;20615;-82
2021/12/15 13:12:49;;;;;;;20.80;14.25;;;12.10;89.20;;;;;;5061835;28;20529;-82
2021/12/15 13:15:21;;;;;;;17.02;11.82;;;12.10;89.20;;;;;;5064566;28;20044;-83
2021/12/15 13:17:58;;;;;;;14.38;10.10;;;12.10;89.20;;;;;;5069680;28;20402;-84
2021/12/15 13:20:27;;;;;;;20.77;14.02;;;12.20;89.20;;;;;;5067311;28;20028;-83
2021/12/15 13:28:49;;;;;;;14.88;11.32;;;12.10;88.70;;;;;;5067282;28;20067;-82
2021/12/15 13:31:29;;;;;;;17.13;10.88;;;12.10;88.70;;;;;;5063769;28;20052;-85
2021/12/15 13:33:57;;;;;;;13.07;9.50;;;12.20;88.70;;;;;;5064083;28;20036;-81
2021/12/15 13:36:40;;;;;;;14.18;9.90;;;12.20;88.70;;;;;;5069588;28;20426;-82
2021/12/15 13:39:15;;;;;;;14.52;10.60;;;12.20;88.60;;;;;;5059731;28;20626;-82
2021/12/15 13:42:03;;;;;;;13.55;9.68;;;12.20;88.50;;;;;;5059680;28;20044;-87
2021/12/15 13:44:38;;;;;;;10.95;8.25;;;12.30;88.40;;;;;;5065797;28;21510;-82
2021/12/15 13:47:09;;;;;;;14.35;9.80;;;12.20;88.30;;;;;;5064287;28;20024;-83
2021/12/15 13:49:57;;;;;;;13.20;9.53;;;12.20;88.20;;;;;;5070260;28;20135;-88
2021/12/15 13:52:34;;;;;;;12.13;8.88;;;12.20;88.20;;;;;;5064645;28;20021;-87
2021/12/15 13:55:20;;;;;;;11.15;7.90;;;12.20;88.20;;;;;;5067486;28;20058;-86
2021/12/15 13:57:45;;;;;;;13.13;9.60;;;12.30;88.20;;;;;;5067935;28;20032;-84
2021/12/15 14:00:24;;;;;;;11.80;8.60;;;12.30;88.00;;;;;;5063552;28;20049;-82
2021/12/15 14:02:58;;;;;;;11.27;7.53;;;12.20;87.90;;;;;;5065222;28;20120;-81
2021/12/15 14:05:31;;;;;;;11.48;7.75;;;12.20;87.90;;;;;;5065422;28;20436;-83